createdAt,value
2018-03-27T00:00:14.710Z,87.07
2018-03-27T00:01:14.680Z,86.69
2018-03-27T00:02:14.708Z,86.79
2018-03-27T00:03:14.620Z,86.50
2018-03-27T00:04:14.599Z,86.88
2018-03-27T00:05:14.591Z,86.50
2018-03-27T00:06:14.529Z,86.31
2018-03-27T00:07:14.547Z,86.12
2018-03-27T00:08:15.351Z,86.41
2018-03-27T00:09:14.443Z,86.41
2018-03-27T00:10:14.414Z,86.31
2018-03-27T00:11:14.454Z,86.41
2018-03-27T00:12:14.358Z,86.50
2018-03-27T00:13:14.329Z,86.41
2018-03-27T00:14:14.294Z,86.41
2018-03-27T00:15:14.839Z,86.22
2018-03-27T00:16:14.286Z,86.22
2018-03-27T00:17:14.214Z,86.22
2018-03-27T00:18:14.237Z,86.60
2018-03-27T00:19:14.843Z,86.31
2018-03-27T00:20:14.167Z,86.22
2018-03-27T00:21:14.089Z,86.31
2018-03-27T00:22:14.850Z,86.22
2018-03-27T00:23:14.031Z,86.31
2018-03-27T00:24:14.054Z,86.50
2018-03-27T00:25:14.040Z,86.64
2018-03-27T00:26:13.954Z,86.45
2018-03-27T00:27:13.915Z,86.74
2018-03-27T00:28:13.886Z,87.30
2018-03-27T00:29:13.855Z,87.02
2018-03-27T00:30:13.902Z,87.40
2018-03-27T00:31:13.797Z,87.59
2018-03-27T00:32:13.822Z,87.49
2018-03-27T00:33:13.739Z,87.49
2018-03-27T00:34:13.710Z,87.35
2018-03-27T00:35:13.682Z,87.49
2018-03-27T00:36:13.654Z,87.30
2018-03-27T00:37:13.669Z,87.40
2018-03-27T00:38:13.591Z,87.26
2018-03-27T00:39:13.609Z,87.12
2018-03-27T00:40:13.533Z,87.35
2018-03-27T00:41:13.530Z,87.26
2018-03-27T00:42:13.531Z,87.30
2018-03-27T00:43:13.447Z,86.74
2018-03-27T00:44:13.418Z,87.16
2018-03-27T00:45:13.390Z,86.93
2018-03-27T00:46:13.360Z,86.35
2018-03-27T00:47:13.388Z,86.45
2018-03-27T00:48:13.299Z,86.55
2018-03-27T00:49:13.274Z,86.55
2018-03-27T00:50:13.241Z,86.74
2018-03-27T00:51:13.263Z,86.45
2018-03-27T00:52:13.184Z,86.64
2018-03-27T00:53:13.155Z,86.55
2018-03-27T00:54:13.849Z,86.35
2018-03-27T00:55:13.149Z,86.31
2018-03-27T00:56:13.067Z,86.93
2018-03-27T00:57:13.038Z,86.35
2018-03-27T00:58:13.008Z,86.26
2018-03-27T00:59:12.980Z,86.55
2018-03-27T01:00:13.006Z,86.55
2018-03-27T01:01:12.923Z,86.45
2018-03-27T01:02:12.893Z,86.74
2018-03-27T01:03:12.866Z,86.64
2018-03-27T01:04:12.845Z,86.74
2018-03-27T01:05:12.847Z,86.64
2018-03-27T01:06:12.779Z,86.55
2018-03-27T01:07:12.751Z,86.45
2018-03-27T01:08:12.720Z,86.35
2018-03-27T01:09:12.738Z,87.12
2018-03-27T01:10:12.707Z,87.02
2018-03-27T01:11:13.257Z,87.02
2018-03-27T01:12:12.638Z,87.12
2018-03-27T01:13:12.618Z,87.12
2018-03-27T01:14:12.542Z,87.40
2018-03-27T01:15:12.513Z,87.12
2018-03-27T01:16:12.484Z,87.59
2018-03-27T01:17:12.502Z,87.12
2018-03-27T01:18:12.425Z,87.59
2018-03-27T01:19:12.396Z,87.12
2018-03-27T01:20:12.373Z,87.59
2018-03-27T01:21:12.338Z,87.83
2018-03-27T01:22:12.366Z,87.97
2018-03-27T01:23:12.280Z,88.40
2018-03-27T01:24:12.257Z,88.59
2018-03-27T01:25:12.228Z,88.78
2018-03-27T01:26:12.847Z,88.96
2018-03-27T01:27:12.227Z,89.44
2018-03-27T01:28:12.133Z,88.96
2018-03-27T01:29:12.106Z,89.44
2018-03-27T01:30:12.075Z,89.82
2018-03-27T01:31:12.046Z,89.72
2018-03-27T01:32:12.067Z,89.82
2018-03-27T01:33:12.036Z,89.72
2018-03-27T01:34:11.963Z,90.67
2018-03-27T01:35:11.932Z,90.29
2018-03-27T01:36:11.915Z,90.29
2018-03-27T01:37:11.874Z,90.58
2018-03-27T01:38:11.897Z,90.58
2018-03-27T01:39:11.809Z,90.95
2018-03-27T01:40:11.783Z,91.43
2018-03-27T01:41:11.761Z,91.71
2018-03-27T01:42:11.777Z,91.71
2018-03-27T01:43:11.695Z,91.90
2018-03-27T01:44:11.664Z,91.62
2018-03-27T01:45:11.636Z,91.43
2018-03-27T01:46:11.609Z,90.67
2018-03-27T01:47:11.620Z,91.24
2018-03-27T01:48:11.547Z,90.86
2018-03-27T01:49:11.522Z,90.86
2018-03-27T01:50:11.529Z,91.05
2018-03-27T01:51:11.461Z,91.05
2018-03-27T01:52:11.430Z,91.14
2018-03-27T01:53:11.448Z,90.77
2018-03-27T01:54:12.345Z,91.24
2018-03-27T01:55:11.404Z,90.77
2018-03-27T01:56:11.331Z,91.33
2018-03-27T01:57:11.279Z,90.95
2018-03-27T01:58:11.252Z,91.24
2018-03-27T01:59:11.225Z,91.33
2018-03-27T02:00:11.248Z,91.52
2018-03-27T02:01:11.164Z,92.00
2018-03-27T02:02:11.139Z,92.47
2018-03-27T02:03:11.104Z,92.90
2018-03-27T02:04:11.073Z,93.08
2018-03-27T02:05:11.164Z,93.18
2018-03-27T02:06:11.024Z,92.90
2018-03-27T02:07:10.989Z,93.37
2018-03-27T02:08:10.960Z,93.94
2018-03-27T02:09:10.928Z,92.99
2018-03-27T02:10:10.942Z,93.18
2018-03-27T02:11:10.866Z,93.08
2018-03-27T02:12:10.887Z,93.08
2018-03-27T02:13:10.805Z,93.46
2018-03-27T02:14:11.351Z,92.99
2018-03-27T02:15:10.747Z,93.27
2018-03-27T02:16:10.723Z,93.08
2018-03-27T02:17:10.724Z,93.56
2018-03-27T02:18:10.700Z,92.61
2018-03-27T02:19:10.630Z,92.24
2018-03-27T02:20:10.594Z,92.71
2018-03-27T02:21:10.564Z,92.61
2018-03-27T02:22:11.347Z,92.61
2018-03-27T02:23:10.543Z,92.05
2018-03-27T02:24:10.529Z,92.24
2018-03-27T02:25:10.448Z,92.24
2018-03-27T02:26:10.421Z,91.95
2018-03-27T02:27:10.383Z,92.24
2018-03-27T02:28:10.420Z,92.14
2018-03-27T02:29:10.327Z,91.95
2018-03-27T02:30:10.292Z,92.71
2018-03-27T02:31:10.270Z,92.61
2018-03-27T02:32:10.282Z,93.65
2018-03-27T02:33:10.245Z,93.23
2018-03-27T02:34:10.172Z,93.61
2018-03-27T02:35:10.289Z,93.42
2018-03-27T02:36:10.116Z,93.13
2018-03-27T02:37:10.083Z,93.70
2018-03-27T02:38:10.050Z,94.18
2018-03-27T02:39:10.023Z,94.18
2018-03-27T02:40:10.037Z,94.08
2018-03-27T02:41:09.963Z,94.56
2018-03-27T02:42:09.929Z,94.84
2018-03-27T02:43:09.903Z,95.31
2018-03-27T02:44:09.868Z,95.31
2018-03-27T02:45:09.885Z,96.26
2018-03-27T02:46:09.812Z,95.88
2018-03-27T02:47:09.779Z,96.07
2018-03-27T02:48:09.751Z,95.78
2018-03-27T02:49:09.765Z,95.88
2018-03-27T02:50:09.683Z,95.83
2018-03-27T02:51:09.720Z,96.02
2018-03-27T02:52:09.626Z,95.74
2018-03-27T02:53:09.618Z,95.93
2018-03-27T02:54:09.565Z,95.74
2018-03-27T02:55:09.532Z,95.74
2018-03-27T02:56:09.557Z,95.83
2018-03-27T02:57:09.482Z,95.93
2018-03-27T02:58:09.439Z,95.55
2018-03-27T02:59:09.415Z,95.17
2018-03-27T03:00:09.379Z,95.45
2018-03-27T03:01:09.410Z,95.36
2018-03-27T03:02:09.318Z,95.36
2018-03-27T03:03:09.308Z,95.74
2018-03-27T03:04:09.264Z,96.02
2018-03-27T03:05:09.220Z,95.83
2018-03-27T03:06:09.235Z,95.93
2018-03-27T03:07:09.162Z,95.93
2018-03-27T03:08:09.130Z,95.74
2018-03-27T03:09:09.100Z,95.83
2018-03-27T03:10:09.067Z,95.64
2018-03-27T03:11:09.084Z,95.83
2018-03-27T03:12:09.057Z,95.55
2018-03-27T03:13:08.975Z,95.26
2018-03-27T03:14:09.001Z,95.36
2018-03-27T03:15:08.912Z,95.55
2018-03-27T03:16:08.883Z,95.36
2018-03-27T03:17:08.851Z,95.07
2018-03-27T03:18:08.820Z,95.36
2018-03-27T03:19:08.857Z,95.36
2018-03-27T03:20:08.769Z,95.74
2018-03-27T03:21:08.746Z,95.07
2018-03-27T03:22:09.356Z,95.07
2018-03-27T03:23:08.676Z,94.51
2018-03-27T03:24:08.685Z,94.13
2018-03-27T03:25:08.610Z,94.32
2018-03-27T03:26:08.568Z,93.94
2018-03-27T03:27:08.587Z,93.75
2018-03-27T03:28:08.510Z,93.56
2018-03-27T03:29:08.520Z,93.47
2018-03-27T03:30:08.444Z,93.56
2018-03-27T03:31:08.413Z,93.56
2018-03-27T03:32:08.384Z,93.56
2018-03-27T03:33:08.411Z,93.66
2018-03-27T03:34:08.316Z,94.04
2018-03-27T03:35:08.290Z,94.89
2018-03-27T03:36:08.264Z,94.79
2018-03-27T03:37:08.234Z,95.45
2018-03-27T03:38:08.262Z,95.93
2018-03-27T03:39:08.162Z,96.21
2018-03-27T03:40:08.132Z,96.31
2018-03-27T03:41:08.107Z,96.78
2018-03-27T03:42:08.072Z,96.59
2018-03-27T03:43:08.092Z,96.50
2018-03-27T03:44:08.010Z,96.97
2018-03-27T03:45:07.977Z,97.16
2018-03-27T03:46:07.948Z,97.25
2018-03-27T03:47:07.914Z,97.06
2018-03-27T03:48:07.930Z,96.97
2018-03-27T03:49:07.851Z,96.40
2018-03-27T03:50:07.817Z,96.69
2018-03-27T03:51:07.790Z,96.54
2018-03-27T03:52:07.767Z,96.54
2018-03-27T03:53:07.834Z,96.54
2018-03-27T03:54:07.695Z,96.54
2018-03-27T03:55:07.664Z,96.64
2018-03-27T03:56:07.683Z,96.78
2018-03-27T03:57:07.606Z,96.07
2018-03-27T03:58:07.568Z,96.16
2018-03-27T03:59:09.349Z,96.21
2018-03-27T04:00:07.509Z,96.54
2018-03-27T04:01:07.522Z,97.16
2018-03-27T04:02:07.447Z,97.44
2018-03-27T04:03:07.411Z,97.53
2018-03-27T04:04:07.387Z,97.39
2018-03-27T04:05:07.349Z,97.49
2018-03-27T04:06:07.366Z,98.14
2018-03-27T04:07:07.287Z,98.62
2018-03-27T04:08:07.254Z,98.62
2018-03-27T04:09:07.245Z,98.52
2018-03-27T04:10:07.191Z,99.19
2018-03-27T04:11:07.226Z,99.09
2018-03-27T04:12:07.127Z,98.52
2018-03-27T04:13:07.098Z,98.81
2018-03-27T04:14:07.069Z,98.33
2018-03-27T04:15:07.043Z,97.96
2018-03-27T04:16:07.050Z,97.96
2018-03-27T04:17:07.039Z,97.77
2018-03-27T04:18:06.949Z,98.05
2018-03-27T04:19:06.906Z,97.67
2018-03-27T04:20:06.887Z,97.77
2018-03-27T04:21:06.846Z,97.39
2018-03-27T04:22:06.853Z,97.39
2018-03-27T04:23:06.829Z,98.33
2018-03-27T04:24:06.750Z,99.28
2018-03-27T04:25:06.718Z,99.28
2018-03-27T04:26:06.715Z,99.00
2018-03-27T04:27:06.654Z,99.09
2018-03-27T04:28:06.669Z,99.09
2018-03-27T04:29:06.588Z,99.28
2018-03-27T04:30:06.623Z,98.52
2018-03-27T04:31:06.531Z,98.71
2018-03-27T04:32:06.498Z,98.81
2018-03-27T04:33:06.513Z,98.81
2018-03-27T04:34:06.430Z,98.90
2018-03-27T04:35:06.399Z,99.47
2018-03-27T04:36:06.368Z,99.85
2018-03-27T04:37:06.340Z,99.99
2018-03-27T04:38:06.353Z,99.47
2018-03-27T04:39:06.276Z,99.57
2018-03-27T04:40:06.285Z,98.90
2018-03-27T04:41:06.208Z,99.38
2018-03-27T04:42:06.176Z,99.47
2018-03-27T04:43:06.147Z,99.28
2018-03-27T04:44:06.113Z,98.62
2018-03-27T04:45:06.133Z,98.62
2018-03-27T04:46:06.105Z,98.62
2018-03-27T04:47:06.023Z,99.28
2018-03-27T04:48:05.985Z,98.90
2018-03-27T04:49:06.004Z,99.00
2018-03-27T04:50:07.275Z,99.00
2018-03-27T04:51:05.891Z,99.09
2018-03-27T04:52:05.858Z,99.00
2018-03-27T04:53:05.831Z,98.90
2018-03-27T04:54:05.799Z,98.52
2018-03-27T04:55:05.830Z,98.81
2018-03-27T04:56:05.753Z,98.62
2018-03-27T04:57:05.707Z,98.33
2018-03-27T04:58:05.675Z,98.43
2018-03-27T04:59:05.642Z,98.52
2018-03-27T05:00:05.648Z,97.96
2018-03-27T05:01:05.574Z,97.67
2018-03-27T05:02:05.593Z,97.39
2018-03-27T05:03:05.516Z,97.20
2018-03-27T05:04:05.483Z,96.92
2018-03-27T05:05:05.501Z,97.44
2018-03-27T05:06:05.428Z,97.39
2018-03-27T05:07:05.387Z,96.97
2018-03-27T05:08:05.359Z,96.88
2018-03-27T05:09:05.320Z,96.21
2018-03-27T05:10:05.335Z,96.16
2018-03-27T05:11:05.258Z,95.74
2018-03-27T05:12:05.257Z,95.69
2018-03-27T05:13:05.194Z,96.07
2018-03-27T05:14:05.162Z,96.40
2018-03-27T05:15:05.187Z,96.21
2018-03-27T05:16:05.103Z,96.83
2018-03-27T05:17:05.072Z,96.88
2018-03-27T05:18:05.050Z,96.69
2018-03-27T05:19:05.012Z,96.40
2018-03-27T05:20:05.017Z,96.50
2018-03-27T05:21:04.939Z,96.02
2018-03-27T05:22:04.912Z,95.64
2018-03-27T05:23:04.879Z,95.64
2018-03-27T05:24:04.854Z,95.55
2018-03-27T05:25:04.866Z,95.74
2018-03-27T05:26:04.786Z,95.83
2018-03-27T05:27:04.763Z,95.93
2018-03-27T05:28:04.721Z,96.02
2018-03-27T05:29:04.699Z,96.12
2018-03-27T05:30:04.706Z,96.12
2018-03-27T05:31:04.629Z,95.83
2018-03-27T05:32:04.597Z,95.74
2018-03-27T05:33:04.563Z,95.74
2018-03-27T05:34:04.536Z,95.93
2018-03-27T05:35:04.552Z,95.93
2018-03-27T05:36:04.472Z,95.74
2018-03-27T05:37:04.488Z,95.64
2018-03-27T05:38:05.364Z,95.17
2018-03-27T05:39:04.425Z,95.36
2018-03-27T05:40:04.350Z,95.17
2018-03-27T05:41:04.358Z,95.45
2018-03-27T05:42:04.283Z,94.89
2018-03-27T05:43:04.259Z,95.17
2018-03-27T05:44:04.219Z,95.26
2018-03-27T05:45:04.189Z,95.26
2018-03-27T05:46:04.205Z,94.89
2018-03-27T05:47:04.138Z,95.07
2018-03-27T05:48:04.097Z,95.17
2018-03-27T05:49:04.074Z,95.45
2018-03-27T05:50:04.042Z,95.26
2018-03-27T05:51:04.047Z,95.07
2018-03-27T05:52:03.977Z,95.83
2018-03-27T05:53:03.940Z,96.12
2018-03-27T05:54:03.910Z,96.12
2018-03-27T05:55:03.880Z,96.02
2018-03-27T05:56:03.942Z,96.21
2018-03-27T05:57:03.824Z,96.40
2018-03-27T05:58:03.785Z,96.59
2018-03-27T05:59:03.805Z,96.88
2018-03-27T06:00:03.724Z,96.78
2018-03-27T06:01:03.704Z,96.50
2018-03-27T06:02:03.666Z,96.73
2018-03-27T06:03:03.635Z,96.73
2018-03-27T06:04:03.649Z,95.78
2018-03-27T06:05:03.573Z,96.45
2018-03-27T06:06:03.541Z,96.83
2018-03-27T06:07:03.516Z,96.73
2018-03-27T06:08:03.536Z,96.92
2018-03-27T06:09:03.454Z,97.02
2018-03-27T06:10:04.356Z,97.02
2018-03-27T06:11:03.398Z,96.92
2018-03-27T06:12:03.408Z,97.11
2018-03-27T06:13:03.386Z,97.20
2018-03-27T06:14:03.296Z,97.20
2018-03-27T06:15:03.318Z,97.11
2018-03-27T06:16:03.245Z,97.11
2018-03-27T06:17:03.207Z,96.26
2018-03-27T06:18:03.178Z,96.97
2018-03-27T06:19:03.216Z,96.59
2018-03-27T06:20:03.116Z,96.40
2018-03-27T06:21:03.085Z,95.83
2018-03-27T06:22:03.054Z,96.02
2018-03-27T06:23:03.034Z,95.93
2018-03-27T06:24:03.047Z,95.83
2018-03-27T06:25:03.023Z,95.93
2018-03-27T06:26:02.936Z,96.02
2018-03-27T06:27:02.906Z,95.45
2018-03-27T06:28:02.887Z,95.55
2018-03-27T06:29:02.848Z,95.45
2018-03-27T06:30:02.858Z,95.36
2018-03-27T06:31:02.791Z,95.36
2018-03-27T06:32:02.759Z,94.93
2018-03-27T06:33:02.769Z,95.22
2018-03-27T06:34:02.705Z,95.03
2018-03-27T06:35:02.714Z,95.03
2018-03-27T06:36:02.651Z,94.46
2018-03-27T06:37:02.617Z,94.18
2018-03-27T06:38:02.582Z,94.08
2018-03-27T06:39:02.558Z,93.80
2018-03-27T06:40:02.576Z,93.80
2018-03-27T06:41:02.494Z,94.46
2018-03-27T06:42:02.547Z,94.08
2018-03-27T06:43:02.438Z,94.08
2018-03-27T06:44:02.408Z,93.70
2018-03-27T06:45:02.432Z,93.61
2018-03-27T06:46:02.863Z,93.70
2018-03-27T06:47:02.329Z,93.89
2018-03-27T06:48:02.343Z,93.70
2018-03-27T06:49:02.280Z,93.61
2018-03-27T06:50:02.234Z,92.76
2018-03-27T06:51:02.210Z,92.90
2018-03-27T06:52:02.227Z,92.23
2018-03-27T06:53:02.154Z,92.23
2018-03-27T06:54:02.859Z,92.42
2018-03-27T06:55:02.148Z,92.61
2018-03-27T06:56:02.115Z,92.42
2018-03-27T06:57:02.085Z,91.57
2018-03-27T06:58:02.013Z,91.38
2018-03-27T06:59:02.077Z,91.09
2018-03-27T07:00:01.953Z,90.81
2018-03-27T07:01:01.926Z,90.72
2018-03-27T07:02:01.892Z,90.91
2018-03-27T07:03:01.932Z,90.43
2018-03-27T07:04:01.848Z,90.53
2018-03-27T07:05:01.816Z,89.96
2018-03-27T07:06:01.780Z,89.86
2018-03-27T07:07:01.812Z,89.77
2018-03-27T07:08:01.731Z,89.58
2018-03-27T07:09:01.721Z,89.58
2018-03-27T07:10:01.915Z,89.53
2018-03-27T07:11:01.660Z,89.81
2018-03-27T07:12:01.637Z,89.81
2018-03-27T07:13:01.588Z,89.43
2018-03-27T07:14:01.633Z,88.96
2018-03-27T07:15:01.659Z,88.39
2018-03-27T07:16:01.500Z,87.92
2018-03-27T07:17:01.472Z,87.45
2018-03-27T07:18:01.449Z,86.59
2018-03-27T07:19:01.418Z,86.49
2018-03-27T07:20:01.436Z,86.40
2018-03-27T07:21:01.359Z,86.02
2018-03-27T07:22:01.334Z,86.02
2018-03-27T07:23:01.347Z,84.59
2018-03-27T07:24:01.292Z,83.94
2018-03-27T07:25:01.246Z,83.46
2018-03-27T07:26:01.216Z,83.03
2018-03-27T07:27:01.282Z,83.31
2018-03-27T07:28:01.168Z,83.03
2018-03-27T07:29:01.134Z,82.74
2018-03-27T07:30:01.107Z,82.17
2018-03-27T07:31:01.079Z,81.70
2018-03-27T07:32:01.099Z,81.41
2018-03-27T07:33:01.022Z,80.46
2018-03-27T07:34:01.019Z,79.46
2018-03-27T07:35:00.970Z,79.27
2018-03-27T07:36:00.943Z,78.42
2018-03-27T07:37:00.961Z,77.56
2018-03-27T07:38:00.935Z,77.28
2018-03-27T07:39:00.856Z,76.56
2018-03-27T07:40:00.829Z,75.79
2018-03-27T07:41:00.810Z,75.60
2018-03-27T07:42:00.777Z,74.75
2018-03-27T07:43:00.815Z,74.08
2018-03-27T07:44:00.772Z,73.90
2018-03-27T07:45:00.700Z,73.99
2018-03-27T07:46:00.669Z,74.18
2018-03-27T07:47:00.639Z,73.52
2018-03-27T07:48:00.671Z,72.28
2018-03-27T07:49:00.605Z,71.71
2018-03-27T07:50:00.561Z,71.23
2018-03-27T07:51:00.538Z,70.76
2018-03-27T07:52:00.567Z,70.95
2018-03-27T07:53:00.483Z,70.57
2018-03-27T07:54:00.458Z,70.57
2018-03-27T07:55:00.431Z,71.04
2018-03-27T07:56:00.404Z,71.71
2018-03-27T07:57:00.425Z,71.33
2018-03-27T07:58:00.348Z,72.00
2018-03-27T07:59:00.322Z,72.47
2018-03-27T08:00:00.347Z,71.52
2018-03-27T08:01:00.269Z,72.56
2018-03-27T08:02:00.296Z,71.81
2018-03-27T08:03:00.226Z,72.09
2018-03-27T08:04:00.196Z,72.09
2018-03-27T08:05:00.218Z,71.81
2018-03-27T08:06:00.149Z,71.43
2018-03-27T08:07:00.120Z,71.23
2018-03-27T08:08:00.093Z,71.46
2018-03-27T08:09:00.868Z,70.79
2018-03-27T08:10:00.089Z,70.61
2018-03-27T08:11:00.047Z,71.04
2018-03-27T08:12:00.004Z,70.51
2018-03-27T08:12:59.968Z,70.99
2018-03-27T08:13:59.947Z,70.99
2018-03-27T08:14:59.972Z,71.84
2018-03-27T08:15:59.900Z,71.37
2018-03-27T08:16:59.875Z,70.89
2018-03-27T08:17:59.849Z,69.46
2018-03-27T08:18:59.876Z,69.02
2018-03-27T08:19:59.803Z,68.80
2018-03-27T08:20:59.791Z,68.52
2018-03-27T08:21:59.754Z,67.94
2018-03-27T08:22:59.744Z,67.98
2018-03-27T08:23:59.859Z,67.41
2018-03-27T08:24:59.733Z,67.79
2018-03-27T08:25:59.701Z,66.74
2018-03-27T08:26:59.703Z,66.65
2018-03-27T08:27:59.635Z,67.03
2018-03-27T08:28:59.605Z,67.60
2018-03-27T08:29:59.582Z,66.55
2018-03-27T08:30:59.555Z,67.03
2018-03-27T08:31:59.579Z,66.65
2018-03-27T08:32:59.512Z,66.74
2018-03-27T08:33:59.492Z,67.50
2018-03-27T08:34:59.529Z,67.41
2018-03-27T08:35:59.455Z,67.98
2018-03-27T08:36:59.427Z,67.41
2018-03-27T08:37:59.406Z,67.41
2018-03-27T08:38:59.387Z,68.07
2018-03-27T08:39:59.407Z,68.55
2018-03-27T08:40:59.343Z,68.93
2018-03-27T08:41:59.322Z,68.84
2018-03-27T08:42:59.297Z,68.80
2018-03-27T08:43:59.875Z,69.27
2018-03-27T08:44:59.296Z,68.61
2018-03-27T08:45:59.317Z,69.37
2018-03-27T08:46:59.204Z,69.09
2018-03-27T08:47:59.183Z,69.56
2018-03-27T08:48:59.216Z,69.37
2018-03-27T08:49:59.133Z,69.56
2018-03-27T08:50:59.111Z,69.18
2018-03-27T08:51:59.876Z,68.99
2018-03-27T08:52:59.063Z,68.36
2018-03-27T08:53:59.447Z,68.74
2018-03-27T08:54:59.016Z,68.74
2018-03-27T08:55:59.049Z,67.79
2018-03-27T08:56:58.974Z,67.32
2018-03-27T08:57:58.962Z,67.07
2018-03-27T08:58:58.928Z,66.20
2018-03-27T08:59:59.438Z,66.87
2018-03-27T09:00:58.888Z,67.07
2018-03-27T09:01:58.861Z,66.08
2018-03-27T09:02:58.844Z,65.99
2018-03-27T09:03:58.816Z,65.89
2018-03-27T09:04:58.844Z,65.83
2018-03-27T09:05:58.818Z,66.02
2018-03-27T09:06:58.793Z,65.83
2018-03-27T09:07:58.732Z,65.64
2018-03-27T09:08:58.706Z,66.14
2018-03-27T09:09:58.726Z,65.10
2018-03-27T09:10:58.659Z,64.08
2018-03-27T09:11:58.642Z,63.13
2018-03-27T09:12:58.651Z,61.83
2018-03-27T09:13:58.600Z,60.40
2018-03-27T09:14:58.629Z,59.35
2018-03-27T09:15:58.631Z,58.97
2018-03-27T09:16:58.545Z,57.92
2018-03-27T09:17:58.527Z,58.02
2018-03-27T09:18:58.507Z,58.21
2018-03-27T09:19:58.493Z,58.08
2018-03-27T09:20:58.519Z,58.84
2018-03-27T09:21:58.551Z,59.51
2018-03-27T09:22:58.438Z,58.87
2018-03-27T09:23:58.425Z,59.06
2018-03-27T09:24:58.405Z,58.78
2018-03-27T09:25:58.393Z,57.92
2018-03-27T09:26:58.422Z,57.73
2018-03-27T09:27:58.350Z,56.78
2018-03-27T09:28:58.353Z,56.21
2018-03-27T09:29:58.378Z,56.52
2018-03-27T09:30:58.301Z,55.28
2018-03-27T09:31:58.341Z,55.66
2018-03-27T09:32:58.265Z,54.90
2018-03-27T09:33:58.251Z,54.71
2018-03-27T09:34:58.233Z,54.59
2018-03-27T09:35:58.223Z,54.68
2018-03-27T09:36:58.250Z,54.49
2018-03-27T09:37:58.188Z,54.88
2018-03-27T09:38:58.206Z,54.94
2018-03-27T09:39:58.152Z,55.42
2018-03-27T09:40:58.132Z,54.97
2018-03-27T09:41:58.114Z,55.13
2018-03-27T09:42:58.095Z,55.32
2018-03-27T09:43:58.133Z,55.42
2018-03-27T09:44:58.062Z,55.42
2018-03-27T09:45:58.045Z,55.61
2018-03-27T09:46:58.021Z,55.04
2018-03-27T09:47:58.009Z,55.13
2018-03-27T09:48:58.033Z,55.22
2018-03-27T09:49:57.964Z,54.82
2018-03-27T09:50:57.963Z,53.99
2018-03-27T09:51:57.936Z,53.32
2018-03-27T09:52:57.912Z,51.32
2018-03-27T09:53:57.941Z,51.54
2018-03-27T09:54:57.952Z,51.54
2018-03-27T09:55:57.857Z,50.11
2018-03-27T09:56:57.841Z,49.42
2018-03-27T09:57:57.822Z,49.06
2018-03-27T09:58:57.802Z,48.58
2018-03-27T09:59:57.831Z,48.90
2018-03-27T10:00:57.769Z,48.58
2018-03-27T10:01:57.751Z,48.97
2018-03-27T10:02:57.751Z,49.54
2018-03-27T10:03:57.719Z,48.58
2018-03-27T10:04:57.745Z,48.27
2018-03-27T10:05:57.680Z,48.85
2018-03-27T10:06:57.672Z,49.51
2018-03-27T10:07:57.657Z,50.27
2018-03-27T10:08:57.628Z,50.75
2018-03-27T10:09:57.656Z,50.94
2018-03-27T10:10:57.658Z,50.18
2018-03-27T10:11:57.573Z,49.44
2018-03-27T10:12:57.555Z,49.95
2018-03-27T10:13:57.534Z,51.66
2018-03-27T10:14:57.516Z,49.68
2018-03-27T10:15:57.557Z,49.21
2018-03-27T10:16:57.485Z,48.57
2018-03-27T10:17:57.485Z,47.23
2018-03-27T10:18:57.450Z,45.79
2018-03-27T10:19:57.435Z,45.82
2018-03-27T10:20:57.458Z,45.84
2018-03-27T10:21:57.418Z,44.98
2018-03-27T10:22:57.392Z,45.37
2018-03-27T10:23:57.376Z,43.48
2018-03-27T10:24:57.363Z,43.09
2018-03-27T10:25:57.410Z,42.43
2018-03-27T10:26:57.338Z,41.64
2018-03-27T10:27:57.326Z,41.24
2018-03-27T10:28:57.315Z,41.62
2018-03-27T10:29:57.298Z,41.88
2018-03-27T10:30:57.330Z,42.91
2018-03-27T10:31:57.269Z,44.34
2018-03-27T10:32:57.248Z,44.15
2018-03-27T10:33:57.235Z,44.82
2018-03-27T10:34:57.240Z,45.20
2018-03-27T10:35:57.257Z,45.01
2018-03-27T10:36:57.185Z,44.92
2018-03-27T10:37:57.167Z,44.34
2018-03-27T10:38:57.906Z,45.29
2018-03-27T10:39:57.130Z,45.08
2018-03-27T10:40:57.189Z,46.15
2018-03-27T10:41:57.094Z,46.44
2018-03-27T10:42:57.080Z,45.87
2018-03-27T10:43:57.085Z,45.87
2018-03-27T10:44:57.117Z,46.70
2018-03-27T10:45:57.021Z,45.37
2018-03-27T10:46:57.005Z,45.28
2018-03-27T10:47:56.985Z,45.68
2018-03-27T10:48:56.974Z,45.87
2018-03-27T10:49:56.989Z,46.63
2018-03-27T10:50:56.973Z,46.08
2018-03-27T10:51:56.907Z,45.32
2018-03-27T10:52:56.890Z,44.96
2018-03-27T10:53:56.917Z,44.96
2018-03-27T10:54:56.856Z,43.33
2018-03-27T10:55:56.842Z,41.91
2018-03-27T10:56:56.827Z,41.14
2018-03-27T10:57:56.806Z,40.95
2018-03-27T10:58:56.842Z,41.83
2018-03-27T10:59:56.776Z,41.83
2018-03-27T11:00:56.884Z,39.92
2018-03-27T11:01:56.744Z,40.13
2018-03-27T11:02:56.778Z,39.08
2018-03-27T11:03:56.821Z,39.18
2018-03-27T11:04:56.701Z,38.60
2018-03-27T11:05:56.688Z,38.89
2018-03-27T11:06:56.680Z,39.27
2018-03-27T11:07:56.715Z,40.89
2018-03-27T11:08:56.663Z,40.80
2018-03-27T11:09:56.644Z,42.07
2018-03-27T11:10:56.631Z,41.97
2018-03-27T11:11:56.666Z,41.38
2018-03-27T11:12:56.607Z,41.47
2018-03-27T11:13:56.600Z,41.28
2018-03-27T11:14:56.650Z,40.40
2018-03-27T11:15:56.569Z,40.30
2018-03-27T11:16:56.620Z,41.03
2018-03-27T11:17:56.546Z,42.36
2018-03-27T11:18:57.421Z,42.91
2018-03-27T11:19:56.515Z,43.29
2018-03-27T11:20:56.528Z,44.32
2018-03-27T11:21:56.538Z,44.99
2018-03-27T11:22:56.474Z,45.54
2018-03-27T11:23:56.461Z,46.11
2018-03-27T11:24:56.488Z,45.83
2018-03-27T11:25:56.430Z,46.11
2018-03-27T11:26:56.406Z,46.68
2018-03-27T11:27:56.441Z,47.54
2018-03-27T11:28:56.377Z,47.73
2018-03-27T11:29:56.358Z,47.25
2018-03-27T11:30:56.924Z,47.42
2018-03-27T11:31:56.372Z,47.99
2018-03-27T11:32:56.302Z,47.32
2018-03-27T11:33:56.283Z,46.66
2018-03-27T11:34:56.260Z,46.94
2018-03-27T11:35:56.253Z,47.42
2018-03-27T11:36:56.267Z,48.27
2018-03-27T11:37:56.264Z,48.18
2018-03-27T11:38:56.181Z,48.18
2018-03-27T11:39:56.157Z,48.08
2018-03-27T11:40:56.154Z,47.80
2018-03-27T11:41:56.119Z,48.08
2018-03-27T11:42:56.157Z,48.18
2018-03-27T11:43:56.078Z,47.99
2018-03-27T11:44:56.099Z,47.80
2018-03-27T11:45:56.031Z,47.80
2018-03-27T11:46:56.018Z,48.08
2018-03-27T11:47:56.032Z,47.80
2018-03-27T11:48:55.964Z,47.61
2018-03-27T11:49:55.947Z,47.80
2018-03-27T11:50:55.989Z,47.52
2018-03-27T11:51:55.904Z,48.06
2018-03-27T11:52:55.875Z,47.97
2018-03-27T11:53:55.903Z,47.87
2018-03-27T11:54:55.831Z,47.87
2018-03-27T11:55:55.811Z,48.06
2018-03-27T11:56:55.790Z,48.44
2018-03-27T11:57:55.761Z,49.01
2018-03-27T11:58:55.790Z,48.73
2018-03-27T11:59:55.713Z,49.20
2018-03-27T12:00:55.701Z,49.18
2018-03-27T12:01:56.438Z,49.27
2018-03-27T12:02:55.644Z,49.27
2018-03-27T12:03:55.676Z,49.58
2018-03-27T12:04:55.593Z,48.92
2018-03-27T12:05:55.590Z,48.54
2018-03-27T12:06:55.553Z,48.82
2018-03-27T12:07:55.570Z,49.01
2018-03-27T12:08:55.509Z,49.49
2018-03-27T12:09:55.481Z,49.58
2018-03-27T12:10:56.846Z,49.49
2018-03-27T12:11:55.434Z,48.44
2018-03-27T12:14:39.169Z,47.87
2018-03-27T12:15:27.406Z,48.37
2018-03-27T12:16:27.380Z,48.08
2018-03-27T12:17:28.019Z,47.61
2018-03-27T12:18:27.347Z,47.42
2018-03-27T12:19:27.373Z,45.70
2018-03-27T12:20:27.308Z,45.80
2018-03-27T12:21:27.285Z,45.51
2018-03-27T12:22:28.119Z,44.96
2018-03-27T12:23:27.291Z,44.96
2018-03-27T12:24:27.214Z,44.96
2018-03-27T12:25:27.186Z,44.87
2018-03-27T12:26:27.168Z,43.94
2018-03-27T12:27:27.143Z,42.99
2018-03-27T12:28:27.174Z,42.99
2018-03-27T12:29:29.522Z,42.96
2018-03-27T12:30:27.086Z,42.89
2018-03-27T12:31:27.054Z,42.99
2018-03-27T12:32:27.080Z,43.16
2018-03-27T12:33:27.618Z,43.73
2018-03-27T12:34:27.173Z,43.63
2018-03-27T12:35:27.626Z,44.68
2018-03-27T12:36:27.620Z,44.39
2018-03-27T12:37:27.195Z,44.01
2018-03-27T12:38:27.130Z,44.39
2018-03-27T12:39:27.572Z,44.11
2018-03-27T12:40:27.139Z,44.20
2018-03-27T12:41:26.840Z,43.91
2018-03-27T12:42:26.871Z,44.20
2018-03-27T12:43:26.798Z,44.01
2018-03-27T12:44:26.777Z,44.20
2018-03-27T12:45:26.798Z,43.91
2018-03-27T12:46:26.737Z,44.59
2018-03-27T12:47:26.759Z,43.90
2018-03-27T12:48:26.695Z,43.61
2018-03-27T12:49:26.665Z,44.37
2018-03-27T12:50:26.681Z,45.23
2018-03-27T12:51:26.624Z,45.30
2018-03-27T12:52:26.597Z,46.15
2018-03-27T12:53:26.584Z,45.78